Terminal Aerodrome Forecast
Issued by NWS Paducah, KY

Home | Current Version | Previous Version | Text Only | Print | Product List | Glossary On
Versions: 1 2 3 4 5 6 7 8 9 10 11 12 13 14 15 16
000
FTUS43 KPAH 012300
TAFEVV
TAF
KEVV 012320Z 0200/0224 27012G20KT P6SM OVC012
     FM020300 30015G25KT P6SM OVC015
     FM021600 32010G15KT P6SM BKN025
     FM022000 30010KT P6SM SKC=

USA.gov is the U.S. government's official web portal to all federal, state and local government web resources and services.